createdAt,value
2023-10-09T00:02:20.818Z,50.88
2023-10-09T00:07:24.555Z,50.56
2023-10-09T00:12:26.895Z,51.66
2023-10-09T00:17:33.469Z,52.59
2023-10-09T00:22:39.321Z,52.36
2023-10-09T00:27:43.460Z,53.83
2023-10-09T00:33:11.252Z,52.63
2023-10-09T00:38:25.456Z,53.68
2023-10-09T00:43:31.039Z,56.07
2023-10-09T00:48:38.975Z,55.63
2023-10-09T00:53:40.879Z,56.32
2023-10-09T00:58:44.346Z,54.45
2023-10-09T01:03:46.645Z,52.32
2023-10-09T01:09:07.048Z,52.56
2023-10-09T01:14:08.694Z,54.87
2023-10-09T01:19:26.250Z,54.22
2023-10-09T01:24:29.017Z,52.12
2023-10-09T01:29:30.917Z,53.53
2023-10-09T01:34:39.142Z,53.79
2023-10-09T01:39:44.004Z,54.02
2023-10-09T01:44:48.451Z,54.66
2023-10-09T01:49:50.754Z,53.92
2023-10-09T01:54:54.574Z,53.47
2023-10-09T01:59:56.279Z,55.50
2023-10-09T02:05:12.614Z,54.34
2023-10-09T02:10:27.613Z,54.17
2023-10-09T02:15:46.516Z,53.17
2023-10-09T02:21:02.471Z,53.58
2023-10-09T02:26:06.382Z,52.75
2023-10-09T02:31:13.189Z,54.39
2023-10-09T02:36:15.104Z,53.17
2023-10-09T02:41:17.171Z,52.39
2023-10-09T02:46:20.743Z,53.49
2023-10-09T02:51:27.307Z,52.42
2023-10-09T02:56:38.806Z,51.44
2023-10-09T03:01:42.198Z,50.91
2023-10-09T03:06:52.790Z,49.61
2023-10-09T03:12:03.621Z,50.23
2023-10-09T03:17:06.445Z,51.03
2023-10-09T03:22:12.361Z,50.49
2023-10-09T03:27:15.418Z,51.00
2023-10-09T03:32:17.278Z,50.65
2023-10-09T03:37:35.210Z,51.18
2023-10-09T03:42:38.162Z,53.28
2023-10-09T03:47:44.432Z,51.24
2023-10-09T03:52:46.267Z,51.47
2023-10-09T03:57:49.254Z,52.74
2023-10-09T04:02:51.871Z,51.76
2023-10-09T04:07:58.164Z,52.95
2023-10-09T04:13:01.643Z,51.75
2023-10-09T04:18:05.476Z,51.19
2023-10-09T04:23:07.474Z,51.71
2023-10-09T04:28:11.220Z,50.47
2023-10-09T04:33:29.928Z,51.09
2023-10-09T04:38:35.572Z,52.30
2023-10-09T04:43:37.176Z,51.75
2023-10-09T04:48:39.672Z,51.92
2023-10-09T04:53:51.272Z,52.30
2023-10-09T04:59:04.567Z,52.40
2023-10-09T05:04:19.673Z,50.16
2023-10-09T05:09:23.984Z,52.50
2023-10-09T05:14:28.491Z,51.30
2023-10-09T05:19:30.747Z,51.80
2023-10-09T05:24:45.031Z,52.63
2023-10-09T05:30:00.489Z,51.26
2023-10-09T05:35:02.557Z,52.33
2023-10-09T05:40:18.232Z,53.51
2023-10-09T05:45:51.908Z,53.62
2023-10-09T05:51:13.894Z,55.56
2023-10-09T05:56:33.506Z,54.15
2023-10-09T06:01:54.117Z,54.43
2023-10-09T06:07:01.859Z,55.43
2023-10-09T06:12:26.693Z,55.93
2023-10-09T06:17:44.448Z,55.68
2023-10-09T06:22:58.232Z,55.03
2023-10-09T06:28:00.236Z,53.19
2023-10-09T06:33:21.612Z,53.34
2023-10-09T06:38:24.436Z,54.06
2023-10-09T06:43:26.006Z,53.51
2023-10-09T06:48:40.448Z,52.89
2023-10-09T06:53:55.130Z,51.45
2023-10-09T06:59:05.087Z,54.25
2023-10-09T07:04:26.008Z,51.88
2023-10-09T07:10:05.690Z,53.21
2023-10-09T07:15:07.872Z,52.32
2023-10-09T07:20:30.412Z,53.81
2023-10-09T07:25:56.293Z,53.44
2023-10-09T07:31:01.978Z,53.64
2023-10-09T07:36:09.981Z,53.26
2023-10-09T07:41:11.796Z,52.22
2023-10-09T07:46:31.463Z,52.88
2023-10-09T07:51:33.260Z,52.18
2023-10-09T07:56:54.293Z,51.81
2023-10-09T08:02:00.419Z,52.12
2023-10-09T08:08:03.333Z,52.43
2023-10-09T08:12:59.342Z,52.54
2023-10-09T08:18:11.142Z,51.49
2023-10-09T08:23:23.392Z,49.69
2023-10-09T08:28:43.585Z,49.69
2023-10-09T08:38:50.150Z,48.62
2023-10-09T08:43:54.027Z,48.91
2023-10-09T08:48:57.580Z,49.16
2023-10-09T08:53:59.294Z,49.50
2023-10-09T08:59:03.063Z,48.76
2023-10-09T09:04:05.070Z,48.29
2023-10-09T09:09:16.266Z,48.20
2023-10-09T09:14:23.278Z,47.64
2023-10-09T09:19:33.632Z,47.29
2023-10-09T09:24:35.397Z,46.20
2023-10-09T09:29:39.981Z,45.65
2023-10-09T09:34:58.457Z,47.23
2023-10-09T09:40:02.568Z,46.48
2023-10-09T09:45:06.544Z,46.10
2023-10-09T09:50:25.754Z,45.05
2023-10-09T09:55:35.095Z,45.51
2023-10-09T10:00:41.856Z,44.26
2023-10-09T10:05:47.696Z,44.41
2023-10-09T10:10:59.455Z,43.71
2023-10-09T10:16:10.310Z,44.59
2023-10-09T10:21:30.425Z,44.60
2023-10-09T10:26:34.881Z,43.50
2023-10-09T10:32:02.091Z,44.07
2023-10-09T10:37:07.308Z,43.54
2023-10-09T10:42:10.390Z,43.83
2023-10-09T10:47:23.962Z,42.97
2023-10-09T10:52:46.361Z,44.26
2023-10-09T10:57:58.444Z,43.57
2023-10-09T11:06:16.522Z,45.06
2023-10-09T11:11:20.794Z,45.14
2023-10-09T11:16:36.063Z,44.94
2023-10-09T11:21:42.080Z,43.69
2023-10-09T11:26:44.566Z,45.71
2023-10-09T11:32:18.419Z,45.63
2023-10-09T11:37:31.196Z,44.39
2023-10-09T11:42:48.189Z,45.84
2023-10-09T11:48:13.191Z,44.39
2023-10-09T11:53:34.503Z,44.74
2023-10-09T11:58:41.262Z,44.22
2023-10-09T12:03:44.219Z,43.64
2023-10-09T12:08:50.126Z,43.83
2023-10-09T12:13:57.615Z,43.25
2023-10-09T12:19:00.448Z,43.04
2023-10-09T12:24:02.914Z,41.59
2023-10-09T12:29:04.988Z,41.88
2023-10-09T12:34:06.736Z,41.19
2023-10-09T12:39:09.449Z,41.58
2023-10-09T12:44:20.174Z,42.27
2023-10-09T12:49:26.412Z,41.33
2023-10-09T12:54:28.855Z,41.62
2023-10-09T12:59:30.515Z,41.93
2023-10-09T13:04:33.905Z,42.28
2023-10-09T13:09:43.976Z,42.87
2023-10-09T13:14:46.685Z,41.87
2023-10-09T13:19:48.384Z,41.88
2023-10-09T13:24:51.095Z,41.10
2023-10-09T13:29:53.683Z,40.44
2023-10-09T13:34:56.751Z,40.78
2023-10-09T13:39:59.013Z,40.70
2023-10-09T13:45:05.871Z,40.06
2023-10-09T13:50:10.828Z,40.02
2023-10-09T13:55:18.728Z,39.54
2023-10-09T14:00:34.049Z,41.19
2023-10-09T14:05:37.872Z,39.77
2023-10-09T14:10:40.062Z,39.71
2023-10-09T14:15:44.082Z,39.52
2023-10-09T14:20:45.773Z,39.48
2023-10-09T14:25:50.807Z,39.79
2023-10-09T14:31:00.380Z,39.34
2023-10-09T14:36:03.228Z,40.21
2023-10-09T14:41:08.564Z,39.55
2023-10-09T14:46:14.572Z,38.89
2023-10-09T14:51:16.509Z,39.95
2023-10-09T14:56:19.851Z,40.04
2023-10-09T15:05:14.939Z,41.15
2023-10-09T15:10:16.992Z,41.77
2023-10-09T15:15:20.076Z,41.34
2023-10-09T15:20:22.181Z,41.54
2023-10-09T15:25:23.863Z,40.88
2023-10-09T15:30:27.672Z,41.13
2023-10-09T15:35:35.074Z,41.12
2023-10-09T15:40:40.229Z,40.81
2023-10-09T15:45:45.636Z,41.11
2023-10-09T15:50:49.716Z,40.93
2023-10-09T15:55:53.383Z,42.39
2023-10-09T16:00:55.068Z,42.64
2023-10-09T16:05:58.809Z,42.42
2023-10-09T16:11:00.548Z,42.63
2023-10-09T16:16:02.603Z,42.30
2023-10-09T16:21:05.360Z,42.06
2023-10-09T16:26:08.434Z,42.96
2023-10-09T16:31:15.439Z,43.88
2023-10-09T16:36:17.250Z,42.81
2023-10-09T16:41:18.996Z,41.34
2023-10-09T16:46:24.290Z,41.55
2023-10-09T16:51:26.019Z,41.38
2023-10-09T16:56:33.550Z,41.97
2023-10-09T17:01:35.234Z,43.99
2023-10-09T17:06:36.958Z,43.92
2023-10-09T17:11:41.332Z,43.36
2023-10-09T17:16:43.077Z,45.14
2023-10-09T17:21:44.766Z,44.09
2023-10-09T17:26:47.327Z,43.76
2023-10-09T17:31:49.021Z,44.28
2023-10-09T17:36:50.837Z,44.23
2023-10-09T17:41:54.194Z,43.70
2023-10-09T17:46:55.997Z,45.55
2023-10-09T17:52:01.133Z,45.44
2023-10-09T17:57:02.958Z,45.56
2023-10-09T18:02:05.513Z,44.85
2023-10-09T18:07:07.200Z,44.54
2023-10-09T18:12:10.037Z,44.72
2023-10-09T18:17:11.805Z,45.33
2023-10-09T18:22:14.626Z,44.81
2023-10-09T18:27:17.872Z,45.63
2023-10-09T18:32:20.288Z,44.75
2023-10-09T18:37:23.467Z,44.09
2023-10-09T18:42:25.106Z,44.07
2023-10-09T18:47:28.515Z,45.15
2023-10-09T18:52:30.297Z,45.51
2023-10-09T18:57:32.011Z,45.37
2023-10-09T19:02:33.782Z,44.39
2023-10-09T19:07:39.178Z,44.91
2023-10-09T19:12:42.185Z,45.81
2023-10-09T19:17:46.343Z,46.68
2023-10-09T19:22:48.139Z,45.94
2023-10-09T19:27:50.123Z,46.33
2023-10-09T19:32:52.082Z,45.73
2023-10-09T19:37:55.016Z,46.57
2023-10-09T19:42:56.784Z,46.17
2023-10-09T19:47:58.713Z,46.84
2023-10-09T19:53:02.589Z,46.25
2023-10-09T19:58:05.545Z,47.28
2023-10-09T20:03:07.308Z,47.50
2023-10-09T20:08:09.089Z,47.40
2023-10-09T20:13:11.123Z,46.89
2023-10-09T20:18:13.046Z,47.51
2023-10-09T20:23:17.445Z,48.04
2023-10-09T20:28:19.543Z,47.34
2023-10-09T20:33:23.860Z,47.51
2023-10-09T20:38:27.188Z,47.10
2023-10-09T20:43:28.923Z,47.84
2023-10-09T20:48:30.565Z,47.05
2023-10-09T20:53:32.342Z,47.01
2023-10-09T20:58:34.094Z,46.48
2023-10-09T21:03:35.858Z,46.04
2023-10-09T21:08:37.679Z,46.25
2023-10-09T21:13:40.730Z,47.24
2023-10-09T21:18:47.104Z,46.94
2023-10-09T21:23:49.213Z,48.87
2023-10-09T21:28:52.284Z,47.62
2023-10-09T21:33:54.074Z,47.97
2023-10-09T21:38:57.460Z,46.44
2023-10-09T21:43:59.150Z,47.00
2023-10-09T21:49:00.973Z,46.79
2023-10-09T21:54:04.879Z,46.61
2023-10-09T21:59:06.849Z,49.03
2023-10-09T22:04:09.188Z,49.01
2023-10-09T22:09:15.808Z,48.99
2023-10-09T22:14:19.285Z,50.24
2023-10-09T22:19:26.399Z,51.74
2023-10-09T22:24:30.754Z,49.76
2023-10-09T22:29:32.413Z,50.51
2023-10-09T22:34:34.116Z,51.54
2023-10-09T22:39:37.691Z,49.23
2023-10-09T22:44:44.574Z,52.20
2023-10-09T22:49:53.977Z,50.79
2023-10-09T22:54:56.268Z,51.11
2023-10-09T23:00:01.605Z,52.47
2023-10-09T23:05:06.723Z,51.06
2023-10-09T23:10:16.542Z,49.06
2023-10-09T23:15:34.146Z,48.98
2023-10-09T23:20:49.919Z,49.88
2023-10-09T23:25:54.372Z,48.09
2023-10-09T23:30:58.472Z,50.94
2023-10-09T23:36:05.909Z,51.58
2023-10-09T23:41:13.461Z,49.88
2023-10-09T23:46:19.233Z,50.04
2023-10-09T23:51:21.444Z,50.24
2023-10-09T23:56:42.688Z,49.70
